Time;durP1;ratioP1;P1;durP2;ratioP2;P2;SDS_P1;SDS_P2;PMS_P1;PMS_P2;Temp;Humidity;BMP_temperature;BMP_pressure;BME280_temperature;BME280_humidity;BME280_pressure;Samples;Min_cycle;Max_cycle;Signal;HPM_P1;HPM_P2
2021/04/13 00:00:30;;;;;;;6.47;1.90;;;3.80;88.60;;;;;;5048041;28;20107;-72
2021/04/13 00:02:59;;;;;;;4.13;2.20;;;3.80;89.00;;;;;;5048802;28;20037;-72
2021/04/13 00:05:27;;;;;;;5.30;2.63;;;3.80;88.90;;;;;;5048660;28;20039;-71
2021/04/13 00:07:54;;;;;;;3.50;2.10;;;3.80;88.90;;;;;;5030783;28;20044;-72
2021/04/13 00:10:34;;;;;;;6.35;1.92;;;3.80;88.90;;;;;;5045921;28;20075;-71
2021/04/13 00:13:01;;;;;;;6.63;2.10;;;3.80;89.00;;;;;;5048796;28;20497;-71
2021/04/13 00:15:50;;;;;;;4.35;2.33;;;3.80;89.10;;;;;;5050523;28;20428;-72
2021/04/13 00:18:23;;;;;;;8.23;1.85;;;3.80;89.10;;;;;;5047833;28;20025;-72
2021/04/13 00:20:57;;;;;;;4.13;2.30;;;3.80;89.20;;;;;;5049313;28;20029;-71
2021/04/13 00:23:22;;;;;;;6.72;2.20;;;3.80;88.80;;;;;;5047831;28;20029;-71
2021/04/13 00:25:55;;;;;;;5.53;2.25;;;3.70;89.30;;;;;;5030165;28;20501;-72
2021/04/13 00:28:30;;;;;;;3.97;1.90;;;3.70;89.30;;;;;;5046620;28;20029;-71
2021/04/13 00:31:03;;;;;;;3.42;2.30;;;3.70;89.40;;;;;;5048363;28;20430;-72
2021/04/13 00:33:35;;;;;;;5.78;2.15;;;3.70;89.40;;;;;;5049720;28;20113;-71
2021/04/13 00:36:10;;;;;;;3.15;2.20;;;3.70;89.40;;;;;;5049828;28;20044;-72
2021/04/13 00:38:54;;;;;;;2.97;1.92;;;3.70;89.20;;;;;;5049272;28;20043;-72
2021/04/13 00:41:19;;;;;;;4.50;2.08;;;3.70;89.50;;;;;;5047264;28;20060;-72
2021/04/13 00:43:59;;;;;;;5.57;2.30;;;3.60;89.50;;;;;;5048402;28;20067;-72
2021/04/13 00:46:37;;;;;;;4.57;2.13;;;3.60;89.50;;;;;;5048521;28;20333;-71
2021/04/13 00:49:04;;;;;;;4.63;2.03;;;3.60;89.80;;;;;;5048591;28;20554;-71
2021/04/13 00:51:37;;;;;;;6.65;2.47;;;3.60;89.80;;;;;;5046871;28;20029;-71
2021/04/13 00:54:11;;;;;;;3.55;2.17;;;3.60;90.00;;;;;;5048948;28;20021;-71
2021/04/13 00:56:39;;;;;;;5.55;2.42;;;3.60;89.90;;;;;;5045322;28;20055;-72
2021/04/13 00:59:15;;;;;;;3.78;2.15;;;3.60;90.00;;;;;;5047018;28;20028;-71
2021/04/13 01:02:00;;;;;;;8.13;2.42;;;3.50;89.90;;;;;;5047793;28;20032;-71
2021/04/13 01:04:39;;;;;;;3.40;2.45;;;3.50;90.00;;;;;;5048073;28;20082;-71
2021/04/13 01:07:12;;;;;;;5.72;2.38;;;3.50;90.00;;;;;;5047514;28;20025;-71
2021/04/13 01:09:47;;;;;;;5.47;3.05;;;3.50;90.00;;;;;;5048606;28;20107;-72
2021/04/13 01:12:32;;;;;;;6.20;3.20;;;3.50;90.10;;;;;;5026162;28;20294;-71
2021/04/13 01:15:00;;;;;;;3.70;2.33;;;3.50;90.00;;;;;;5030492;28;20030;-71
2021/04/13 01:17:28;;;;;;;4.65;2.50;;;3.50;90.00;;;;;;5030790;28;20695;-72
2021/04/13 01:19:58;;;;;;;4.88;2.10;;;3.50;90.10;;;;;;5047974;28;20036;-72
2021/04/13 01:22:42;;;;;;;5.80;2.33;;;3.50;90.20;;;;;;5048598;28;20485;-71
2021/04/13 01:25:15;;;;;;;8.05;2.22;;;3.40;90.00;;;;;;5047605;28;20676;-72
2021/04/13 01:27:55;;;;;;;7.07;2.35;;;3.50;90.10;;;;;;5046261;28;20440;-71
2021/04/13 01:30:35;;;;;;;5.80;2.42;;;3.40;90.20;;;;;;5047421;28;20513;-71
2021/04/13 01:33:11;;;;;;;5.35;2.20;;;3.40;90.10;;;;;;5053220;28;20039;-71
2021/04/13 01:35:42;;;;;;;5.78;2.78;;;3.40;90.10;;;;;;5047950;28;20031;-72
2021/04/13 01:38:30;;;;;;;5.77;2.47;;;3.40;90.40;;;;;;5047214;28;20405;-71
2021/04/13 01:41:09;;;;;;;5.85;2.30;;;3.40;90.30;;;;;;5046511;28;20303;-71
2021/04/13 01:43:40;;;;;;;4.95;2.40;;;3.40;90.30;;;;;;5044684;28;20029;-71
2021/04/13 01:46:09;;;;;;;6.53;2.00;;;3.30;90.30;;;;;;5047439;28;20032;-71
2021/04/13 01:48:35;;;;;;;8.55;2.65;;;3.30;90.30;;;;;;5046508;28;20079;-71
2021/04/13 01:51:04;;;;;;;5.20;2.45;;;3.30;90.40;;;;;;5045304;28;20545;-71
2021/04/13 01:53:36;;;;;;;6.53;2.75;;;3.30;90.40;;;;;;5047597;28;20041;-71
2021/04/13 01:56:05;;;;;;;6.00;2.60;;;3.30;90.70;;;;;;5046145;28;20478;-71
2021/04/13 01:58:41;;;;;;;5.10;2.40;;;3.30;90.70;;;;;;5046873;28;20430;-71
2021/04/13 02:01:16;;;;;;;8.88;2.35;;;3.30;90.70;;;;;;5028920;28;20056;-72
2021/04/13 02:03:52;;;;;;;5.35;2.33;;;3.30;90.70;;;;;;5045314;28;20025;-71
2021/04/13 02:06:23;;;;;;;7.05;2.30;;;3.30;90.80;;;;;;5047425;28;20359;-70
2021/04/13 02:08:52;;;;;;;7.00;2.33;;;3.30;90.80;;;;;;5029648;28;20056;-71
2021/04/13 02:11:33;;;;;;;4.75;2.47;;;3.30;90.90;;;;;;5031346;28;20268;-72
2021/04/13 02:14:14;;;;;;;10.32;2.50;;;3.20;90.90;;;;;;5046878;28;20088;-71
2021/04/13 02:16:57;;;;;;;8.65;2.92;;;3.20;90.80;;;;;;5047186;28;20036;-71
2021/04/13 02:19:25;;;;;;;9.55;2.88;;;3.30;90.90;;;;;;5045449;28;20025;-71
2021/04/13 02:21:55;;;;;;;7.15;2.58;;;3.30;91.00;;;;;;5047229;28;20292;-71
2021/04/13 02:24:32;;;;;;;6.57;2.28;;;3.20;90.90;;;;;;5050063;28;20032;-71
2021/04/13 02:27:03;;;;;;;5.43;2.38;;;3.20;91.10;;;;;;5051920;28;20087;-72
2021/04/13 02:29:38;;;;;;;4.60;2.30;;;3.20;91.10;;;;;;5049970;28;20040;-72
2021/04/13 02:32:24;;;;;;;4.53;3.25;;;3.20;91.10;;;;;;5050555;28;20436;-71
2021/04/13 02:34:53;;;;;;;9.63;2.85;;;3.20;91.10;;;;;;5031948;28;20730;-71
2021/04/13 02:37:43;;;;;;;3.30;2.50;;;3.20;91.20;;;;;;5050751;28;20029;-72
2021/04/13 02:40:15;;;;;;;7.30;2.42;;;3.20;91.20;;;;;;5049793;28;20029;-72
2021/04/13 02:42:52;;;;;;;7.25;2.55;;;3.20;91.20;;;;;;5033786;28;20048;-72
2021/04/13 02:45:35;;;;;;;5.30;2.80;;;3.10;91.20;;;;;;5051794;28;20417;-71
2021/04/13 02:48:06;;;;;;;6.72;2.90;;;3.10;91.10;;;;;;5049806;28;20048;-71
2021/04/13 02:50:34;;;;;;;12.50;3.35;;;3.10;91.20;;;;;;5049824;28;20356;-72
2021/04/13 02:53:04;;;;;;;6.60;2.65;;;3.10;91.20;;;;;;5049083;28;20082;-71
2021/04/13 02:55:37;;;;;;;6.65;2.38;;;3.10;91.20;;;;;;5049876;28;20147;-71
2021/04/13 02:58:10;;;;;;;5.50;2.55;;;3.10;91.30;;;;;;5050266;28;20040;-72
2021/04/13 03:00:42;;;;;;;6.95;3.20;;;3.10;91.30;;;;;;5050029;28;20051;-72
2021/04/13 03:03:11;;;;;;;6.47;2.42;;;3.10;91.20;;;;;;5049210;28;20048;-71
2021/04/13 03:05:40;;;;;;;12.43;2.40;;;3.10;91.30;;;;;;5048751;28;20040;-71
2021/04/13 03:08:11;;;;;;;6.15;2.13;;;3.10;91.30;;;;;;5032325;28;20028;-71
2021/04/13 03:10:55;;;;;;;8.38;2.50;;;3.10;91.40;;;;;;5049232;28;20413;-72
2021/04/13 03:13:26;;;;;;;5.93;3.53;;;3.10;91.50;;;;;;5047165;28;20389;-71
2021/04/13 03:15:55;;;;;;;8.88;2.75;;;3.10;91.40;;;;;;5032105;28;20052;-72
2021/04/13 03:18:33;;;;;;;5.47;3.05;;;3.10;91.50;;;;;;5050404;28;20139;-71
2021/04/13 03:21:05;;;;;;;4.57;2.30;;;3.10;91.50;;;;;;5052640;28;20112;-70
2021/04/13 03:23:32;;;;;;;7.05;2.47;;;3.10;91.50;;;;;;5032681;28;20033;-71
2021/04/13 03:26:04;;;;;;;8.57;2.97;;;3.10;91.50;;;;;;5049655;28;20487;-71
2021/04/13 03:28:34;;;;;;;;;;;3.10;91.40;;;;;;5048499;28;20521;-71
2021/04/13 03:31:02;;;;;;;5.45;2.60;;;3.10;91.50;;;;;;5031482;28;19915;-71
2021/04/13 03:33:31;;;;;;;6.30;2.50;;;3.10;91.50;;;;;;5050892;28;20025;-71
2021/04/13 03:36:08;;;;;;;7.95;2.70;;;3.00;91.50;;;;;;5031422;28;20029;-71
2021/04/13 03:38:36;;;;;;;4.72;2.25;;;3.00;91.60;;;;;;5051079;28;20044;-71
2021/04/13 03:41:03;;;;;;;6.25;2.40;;;3.00;91.50;;;;;;5032444;28;20467;-71
2021/04/13 03:43:31;;;;;;;7.72;2.35;;;3.10;91.60;;;;;;5050878;28;20029;-71
2021/04/13 03:46:02;;;;;;;9.07;2.10;;;3.00;91.50;;;;;;5051397;28;20147;-71
2021/04/13 03:48:33;;;;;;;7.40;2.90;;;3.00;91.60;;;;;;5051176;28;20025;-71
2021/04/13 03:51:06;;;;;;;7.22;2.65;;;3.00;91.60;;;;;;5047162;28;20538;-71
2021/04/13 03:53:36;;;;;;;5.38;2.58;;;3.00;91.70;;;;;;5047777;28;20064;-70
2021/04/13 03:56:04;;;;;;;6.93;2.63;;;3.00;91.70;;;;;;5049567;28;20481;-72
2021/04/13 03:58:35;;;;;;;6.82;2.47;;;3.00;91.70;;;;;;5030982;28;20039;-71
2021/04/13 04:01:01;;;;;;;8.18;3.50;;;3.00;91.80;;;;;;5046932;28;20037;-70
2021/04/13 04:03:32;;;;;;;9.60;3.17;;;2.90;92.10;;;;;;5051503;28;20032;-71
2021/04/13 04:05:59;;;;;;;5.78;3.28;;;3.00;92.00;;;;;;5050249;28;20067;-71
2021/04/13 04:08:28;;;;;;;5.95;2.53;;;3.00;92.00;;;;;;5050421;28;20029;-71
2021/04/13 04:10:54;;;;;;;4.47;2.47;;;3.00;92.10;;;;;;5047327;28;20059;-71
2021/04/13 04:13:32;;;;;;;9.07;3.20;;;3.00;92.10;;;;;;5050406;28;20502;-71
2021/04/13 04:16:26;;;;;;;8.02;3.10;;;3.00;92.10;;;;;;5050566;28;20538;-71
2021/04/13 04:18:52;;;;;;;5.63;2.72;;;3.00;92.10;;;;;;5038511;28;20033;-70
2021/04/13 04:21:32;;;;;;;12.07;3.08;;;3.00;92.20;;;;;;5048704;28;20032;-71
2021/04/13 04:24:20;;;;;;;7.10;2.72;;;3.00;92.00;;;;;;5016017;28;20037;-71
2021/04/13 04:26:52;;;;;;;7.78;2.95;;;3.10;92.10;;;;;;5049592;28;20522;-72
2021/04/13 04:29:29;;;;;;;5.05;2.90;;;3.00;92.00;;;;;;5048943;28;20513;-71
2021/04/13 04:32:08;;;;;;;8.13;3.30;;;2.90;92.20;;;;;;5049087;28;20086;-71
2021/04/13 04:34:34;;;;;;;8.57;3.13;;;2.90;92.30;;;;;;5049699;28;20028;-70
2021/04/13 04:37:00;;;;;;;8.13;3.15;;;2.90;92.30;;;;;;5047670;28;20110;-71
2021/04/13 04:39:31;;;;;;;5.97;2.92;;;2.90;92.30;;;;;;5052454;28;20098;-71
2021/04/13 04:42:28;;;;;;;9.18;3.40;;;2.90;92.30;;;;;;5049936;28;20028;-71
2021/04/13 04:45:14;;;;;;;8.20;2.78;;;3.00;92.20;;;;;;5046957;28;20408;-70
2021/04/13 04:47:41;;;;;;;6.40;2.72;;;3.00;92.10;;;;;;5049842;28;20105;-71
2021/04/13 04:50:10;;;;;;;9.40;2.80;;;2.90;92.30;;;;;;5050179;28;20413;-72
2021/04/13 04:52:36;;;;;;;3.70;2.75;;;2.90;92.40;;;;;;5047732;28;20074;-71
2021/04/13 04:55:03;;;;;;;6.10;3.30;;;3.00;92.40;;;;;;5031155;28;20037;-72
2021/04/13 04:57:28;;;;;;;10.57;3.22;;;2.90;92.30;;;;;;5050928;28;20119;-72
2021/04/13 04:59:55;;;;;;;9.80;2.40;;;2.90;92.30;;;;;;5045282;28;20076;-72
2021/04/13 05:02:21;;;;;;;6.63;2.85;;;2.90;92.40;;;;;;5048963;28;20029;-72
2021/04/13 05:04:47;;;;;;;6.55;2.60;;;2.90;92.40;;;;;;5028564;28;20035;-72
2021/04/13 05:07:13;;;;;;;5.38;2.70;;;2.90;92.40;;;;;;5047309;28;20124;-72
2021/04/13 05:09:39;;;;;;;5.53;2.80;;;3.00;92.40;;;;;;5030182;28;20509;-71
2021/04/13 05:12:07;;;;;;;6.97;2.80;;;2.90;92.40;;;;;;5029002;28;20035;-72
2021/04/13 05:14:33;;;;;;;6.82;2.75;;;3.00;92.50;;;;;;5048889;28;20021;-71
2021/04/13 05:16:58;;;;;;;9.27;3.30;;;3.00;92.40;;;;;;5031496;28;20028;-72
2021/04/13 05:19:26;;;;;;;6.38;2.53;;;3.00;92.30;;;;;;5047381;28;20036;-72
2021/04/13 05:21:51;;;;;;;9.15;2.70;;;3.00;92.40;;;;;;5040412;28;20029;-72
2021/04/13 05:24:17;;;;;;;6.70;3.05;;;3.00;92.40;;;;;;5047850;28;20090;-70
2021/04/13 05:26:43;;;;;;;9.05;2.78;;;3.00;92.40;;;;;;5050894;28;20103;-71
2021/04/13 05:29:08;;;;;;;8.57;3.00;;;3.00;92.50;;;;;;5050108;28;20044;-72
2021/04/13 05:31:37;;;;;;;8.27;2.88;;;3.00;92.60;;;;;;5049253;28;20036;-71
2021/04/13 05:34:03;;;;;;;7.95;3.08;;;3.00;92.60;;;;;;5046425;28;20075;-71
2021/04/13 05:36:29;;;;;;;7.90;2.88;;;3.10;92.60;;;;;;5048602;28;20056;-72
2021/04/13 05:38:55;;;;;;;7.68;3.10;;;3.10;92.60;;;;;;5047647;28;20041;-72
2021/04/13 05:41:20;;;;;;;12.48;4.43;;;3.10;92.50;;;;;;5044679;28;20041;-73
2021/04/13 05:43:46;;;;;;;10.35;2.95;;;3.20;92.50;;;;;;5046987;28;20033;-72
2021/04/13 05:46:18;;;;;;;8.65;2.85;;;3.10;92.40;;;;;;5051288;28;20052;-70
2021/04/13 05:48:43;;;;;;;9.73;3.00;;;3.20;92.30;;;;;;5030525;28;20017;-69
2021/04/13 05:51:09;;;;;;;7.43;3.15;;;3.20;92.20;;;;;;5048970;28;20036;-70
2021/04/13 05:53:35;;;;;;;9.73;3.17;;;3.20;92.40;;;;;;5047366;28;20056;-70
2021/04/13 05:56:01;;;;;;;9.88;3.33;;;3.20;92.50;;;;;;5046867;28;20033;-70
2021/04/13 05:58:35;;;;;;;11.77;3.13;;;3.20;92.70;;;;;;5049622;28;20025;-72
2021/04/13 06:01:07;;;;;;;6.88;2.60;;;3.30;92.60;;;;;;5053964;28;20055;-72
2021/04/13 06:03:33;;;;;;;9.55;2.78;;;3.40;92.50;;;;;;5034180;28;20029;-71
2021/04/13 06:05:59;;;;;;;7.93;2.70;;;3.40;92.40;;;;;;5052235;28;20036;-72
2021/04/13 06:08:25;;;;;;;10.68;3.55;;;3.40;92.50;;;;;;5050510;28;20029;-71
2021/04/13 06:11:01;;;;;;;9.50;2.78;;;3.40;92.50;;;;;;5050363;28;20025;-73
2021/04/13 06:13:27;;;;;;;9.38;3.20;;;3.50;92.40;;;;;;5051134;28;20029;-71
2021/04/13 06:15:54;;;;;;;11.00;2.95;;;3.50;92.40;;;;;;5051023;28;20037;-71
2021/04/13 06:18:21;;;;;;;9.73;2.78;;;3.60;92.30;;;;;;5048950;28;20433;-71
2021/04/13 06:20:49;;;;;;;9.60;2.80;;;3.60;92.20;;;;;;5050500;28;20490;-69
2021/04/13 06:23:15;;;;;;;7.85;2.88;;;3.60;92.20;;;;;;5049646;28;20041;-72
2021/04/13 06:25:41;;;;;;;10.05;2.78;;;3.70;92.10;;;;;;5051292;28;20025;-72
2021/04/13 06:28:07;;;;;;;11.07;2.70;;;3.70;92.10;;;;;;5051460;28;20033;-71
2021/04/13 06:30:33;;;;;;;9.05;3.33;;;3.70;92.30;;;;;;5049803;28;20036;-71
2021/04/13 06:33:01;;;;;;;7.13;2.97;;;3.70;92.30;;;;;;5031235;28;20021;-71
2021/04/13 06:35:28;;;;;;;9.35;3.50;;;3.80;92.30;;;;;;5049540;28;20028;-71
2021/04/13 06:37:57;;;;;;;10.82;3.13;;;3.80;92.20;;;;;;5050823;28;20041;-70
2021/04/13 06:40:58;;;;;;;11.32;2.95;;;3.90;92.10;;;;;;5048842;28;20033;-72
2021/04/13 06:43:33;;;;;;;10.73;3.03;;;3.90;91.70;;;;;;4995607;28;20072;-71
2021/04/13 06:46:33;;;;;;;9.43;3.45;;;3.90;91.90;;;;;;5046665;28;20052;-71
2021/04/13 06:49:12;;;;;;;11.35;3.28;;;3.80;92.10;;;;;;5048217;28;20100;-70
2021/04/13 06:52:18;;;;;;;11.85;3.40;;;4.00;92.00;;;;;;5049551;28;20091;-71
2021/04/13 06:55:05;;;;;;;9.73;3.55;;;4.00;92.00;;;;;;5051239;28;20029;-71
2021/04/13 06:57:56;;;;;;;9.52;3.45;;;4.00;92.00;;;;;;5047495;28;20397;-69
2021/04/13 07:00:47;;;;;;;12.25;3.42;;;4.10;92.00;;;;;;5031514;28;20025;-71
2021/04/13 07:03:29;;;;;;;6.45;2.72;;;4.10;92.10;;;;;;5050057;28;20036;-71
2021/04/13 07:06:03;;;;;;;8.45;2.80;;;4.30;91.60;;;;;;5049884;28;20405;-72
2021/04/13 07:08:39;;;;;;;6.07;2.15;;;4.40;91.60;;;;;;5046638;28;20039;-71
2021/04/13 07:11:41;;;;;;;10.77;2.13;;;4.40;91.50;;;;;;5050062;28;20028;-70
2021/04/13 07:14:36;;;;;;;5.85;1.98;;;4.50;91.20;;;;;;5031789;28;20048;-70
2021/04/13 07:17:07;;;;;;;10.68;2.25;;;4.60;90.70;;;;;;5050545;28;20043;-70
2021/04/13 07:19:48;;;;;;;5.15;1.85;;;4.60;90.80;;;;;;5033048;28;20029;-70
2021/04/13 07:22:20;;;;;;;6.63;1.92;;;4.50;91.10;;;;;;5052258;28;20036;-69
2021/04/13 07:24:57;;;;;;;6.47;2.05;;;4.60;91.20;;;;;;5032452;28;20033;-70
2021/04/13 07:27:52;;;;;;;4.57;1.38;;;4.60;91.10;;;;;;5050389;28;20021;-72
2021/04/13 07:30:18;;;;;;;7.40;1.90;;;4.70;90.70;;;;;;5040010;28;20055;-69
2021/04/13 07:32:45;;;;;;;6.60;1.77;;;4.60;90.60;;;;;;5054304;28;20627;-71
2021/04/13 07:35:14;;;;;;;7.75;2.00;;;4.70;90.70;;;;;;5031411;28;20056;-71
2021/04/13 07:37:43;;;;;;;7.10;1.75;;;4.80;90.40;;;;;;5051527;28;20032;-73
2021/04/13 07:40:15;;;;;;;11.63;1.40;;;4.90;90.10;;;;;;5030383;28;20057;-72
2021/04/13 07:42:59;;;;;;;7.75;2.33;;;4.80;90.10;;;;;;5049768;28;20032;-71
2021/04/13 07:45:38;;;;;;;5.82;1.48;;;4.90;90.10;;;;;;5014878;28;20055;-71
2021/04/13 07:48:13;;;;;;;7.25;1.92;;;4.90;90.40;;;;;;5048590;28;20032;-71
2021/04/13 07:51:03;;;;;;;5.60;1.50;;;4.90;90.50;;;;;;5029242;28;20021;-70
2021/04/13 07:54:04;;;;;;;7.37;1.50;;;5.10;90.20;;;;;;5033661;28;20126;-67
2021/04/13 07:56:51;;;;;;;7.93;1.88;;;5.10;90.00;;;;;;5015109;28;20291;-71
2021/04/13 07:59:37;;;;;;;11.65;1.70;;;5.20;89.00;;;;;;5050951;28;20033;-70
2021/04/13 08:02:03;;;;;;;5.10;1.30;;;5.20;89.80;;;;;;5045842;28;20159;-72
2021/04/13 08:04:30;;;;;;;8.70;1.95;;;5.40;89.00;;;;;;5049646;28;20024;-69
2021/04/13 08:07:19;;;;;;;8.93;1.70;;;5.40;89.10;;;;;;5028956;28;20051;-72
2021/04/13 08:09:54;;;;;;;12.98;1.85;;;5.60;88.20;;;;;;5046391;28;20025;-72
2021/04/13 08:12:35;;;;;;;6.63;1.60;;;5.60;88.20;;;;;;5050008;28;20016;-69
2021/04/13 08:15:09;;;;;;;7.28;2.38;;;5.60;87.60;;;;;;5047060;28;20217;-69
2021/04/13 08:18:07;;;;;;;11.13;2.00;;;5.60;87.50;;;;;;5049338;28;20036;-73
2021/04/13 08:20:36;;;;;;;11.73;1.88;;;5.70;88.00;;;;;;5048341;28;20036;-71
2021/04/13 08:23:10;;;;;;;9.02;2.22;;;5.90;86.80;;;;;;5031795;28;20079;-72
2021/04/13 08:25:42;;;;;;;15.35;2.88;;;5.80;87.20;;;;;;5050985;28;20039;-71
2021/04/13 08:28:14;;;;;;;7.00;1.98;;;5.90;87.80;;;;;;5048046;28;20035;-72
2021/04/13 08:34:18;;;;;;;8.55;2.22;;;5.80;87.70;;;;;;5027959;28;20032;-70
2021/04/13 08:36:48;;;;;;;11.65;2.13;;;5.90;87.90;;;;;;5048066;28;20029;-71
2021/04/13 08:39:16;;;;;;;12.50;2.60;;;6.00;87.70;;;;;;5045885;28;20283;-70
2021/04/13 08:41:47;;;;;;;12.80;2.13;;;6.10;87.10;;;;;;5048732;28;20033;-71
2021/04/13 08:44:20;;;;;;;14.80;2.70;;;6.20;86.20;;;;;;5049886;28;20482;-69
2021/04/13 08:46:54;;;;;;;10.43;2.25;;;6.30;86.30;;;;;;5028276;28;20033;-70
2021/04/13 08:49:50;;;;;;;16.63;2.40;;;6.30;85.50;;;;;;5032121;28;20074;-69
2021/04/13 08:52:28;;;;;;;14.13;2.63;;;6.40;85.20;;;;;;5049305;28;20033;-71
2021/04/13 08:55:20;;;;;;;8.13;2.13;;;6.40;85.20;;;;;;5047951;28;20037;-71
2021/04/13 08:58:20;;;;;;;9.93;2.70;;;6.40;85.80;;;;;;5047332;28;20131;-71
2021/04/13 09:00:51;;;;;;;12.73;2.03;;;6.40;85.10;;;;;;5052362;28;20025;-69
2021/04/13 09:03:23;;;;;;;8.82;1.65;;;6.50;81.20;;;;;;5048337;28;20210;-70
2021/04/13 09:06:37;;;;;;;12.20;2.33;;;6.50;82.30;;;;;;5029075;28;20107;-68
2021/04/13 09:09:10;;;;;;;8.35;1.90;;;6.70;80.60;;;;;;5017837;28;20447;-70
2021/04/13 09:11:59;;;;;;;14.57;2.08;;;6.70;81.70;;;;;;5045924;28;20021;-68
2021/04/13 09:14:31;;;;;;;17.17;2.13;;;7.00;80.20;;;;;;5048344;28;20109;-70
2021/04/13 09:17:07;;;;;;;11.27;2.05;;;7.00;79.30;;;;;;5050510;28;20034;-70
2021/04/13 09:19:38;;;;;;;14.40;2.25;;;7.30;77.00;;;;;;5048161;28;20037;-70
2021/04/13 09:22:25;;;;;;;8.43;2.42;;;7.30;77.50;;;;;;5028051;28;20096;-72
2021/04/13 09:25:09;;;;;;;11.20;1.55;;;7.30;77.50;;;;;;5046751;28;20048;-71
2021/04/13 09:28:00;;;;;;;13.55;1.83;;;7.20;76.10;;;;;;5046443;28;20029;-70
2021/04/13 09:30:38;;;;;;;12.68;2.08;;;7.10;74.80;;;;;;5049611;28;20025;-70
2021/04/13 09:33:36;;;;;;;15.60;2.25;;;7.20;73.30;;;;;;5047202;28;20029;-70
2021/04/13 09:36:32;;;;;;;15.68;1.70;;;7.00;75.80;;;;;;5048625;28;20072;-72
2021/04/13 09:39:04;;;;;;;10.43;2.20;;;7.00;75.70;;;;;;5033633;28;20086;-70
2021/04/13 09:41:38;;;;;;;9.77;1.92;;;7.20;75.90;;;;;;5051508;28;20060;-71
2021/04/13 09:44:26;;;;;;;17.67;2.42;;;7.30;72.30;;;;;;5050114;28;20086;-71
2021/04/13 09:47:17;;;;;;;11.70;2.42;;;7.50;70.20;;;;;;5051889;28;20513;-69
2021/04/13 09:49:46;;;;;;;9.43;1.85;;;7.60;67.90;;;;;;5048698;28;20027;-71
2021/04/13 09:52:37;;;;;;;12.07;2.40;;;7.50;69.50;;;;;;5052177;28;20375;-70
2021/04/13 09:55:27;;;;;;;14.05;1.88;;;7.50;66.70;;;;;;5051589;28;20021;-71
2021/04/13 09:57:55;;;;;;;10.65;1.55;;;7.50;65.90;;;;;;5049196;28;20029;-70
2021/04/13 10:00:39;;;;;;;10.40;2.17;;;7.70;64.30;;;;;;5051214;28;20047;-72
2021/04/13 10:03:40;;;;;;;11.68;1.50;;;7.90;66.20;;;;;;5047722;28;20130;-70
2021/04/13 10:06:10;;;;;;;10.65;1.83;;;8.00;67.00;;;;;;5049256;28;20588;-70
2021/04/13 10:08:38;;;;;;;10.90;2.00;;;7.90;64.10;;;;;;5049812;28;20517;-71
2021/04/13 10:11:10;;;;;;;10.98;1.70;;;7.90;64.90;;;;;;5051913;28;20037;-71
2021/04/13 10:14:08;;;;;;;7.40;1.58;;;7.80;65.00;;;;;;5049474;28;20025;-71
2021/04/13 10:16:43;;;;;;;7.80;1.27;;;7.80;63.40;;;;;;5047463;28;20025;-74
2021/04/13 10:19:23;;;;;;;12.20;1.70;;;7.80;60.30;;;;;;5046020;28;20040;-72
2021/04/13 10:22:17;;;;;;;7.03;1.33;;;7.90;60.20;;;;;;5032170;28;20051;-73
2021/04/13 10:25:17;;;;;;;10.07;1.58;;;8.10;60.90;;;;;;5052494;28;20122;-74
2021/04/13 10:28:16;;;;;;;12.93;2.00;;;8.10;64.20;;;;;;5046519;28;20017;-73
2021/04/13 10:30:54;;;;;;;5.57;1.48;;;8.10;65.20;;;;;;5050209;28;20043;-75
2021/04/13 10:33:58;;;;;;;13.95;2.22;;;8.20;63.70;;;;;;5029557;28;20055;-74
2021/04/13 10:36:46;;;;;;;9.68;1.80;;;8.10;64.20;;;;;;5033924;28;20029;-74
2021/04/13 10:39:17;;;;;;;8.00;1.80;;;8.00;65.10;;;;;;5050570;28;20116;-74
2021/04/13 10:42:13;;;;;;;11.73;1.85;;;7.90;65.90;;;;;;5050756;28;20061;-73
2021/04/13 10:45:12;;;;;;;10.13;1.70;;;7.90;67.20;;;;;;5048491;28;20135;-75
2021/04/13 10:47:58;;;;;;;8.88;2.20;;;7.80;68.50;;;;;;5031594;28;20029;-75
2021/04/13 10:50:50;;;;;;;8.77;2.42;;;8.00;67.50;;;;;;5048994;28;20045;-74
2021/04/13 10:53:32;;;;;;;6.72;1.90;;;8.10;67.00;;;;;;5032510;28;20459;-73
2021/04/13 10:56:44;;;;;;;4.82;1.15;;;8.10;66.80;;;;;;5049288;28;20045;-74
2021/04/13 10:59:28;;;;;;;10.73;1.52;;;8.20;62.60;;;;;;5046749;28;20544;-74
2021/04/13 11:02:21;;;;;;;7.43;1.40;;;8.30;61.80;;;;;;5052157;28;20029;-73
2021/04/13 11:05:08;;;;;;;8.27;1.17;;;8.40;60.70;;;;;;5046625;28;20391;-74
2021/04/13 11:08:04;;;;;;;12.63;1.98;;;8.70;61.90;;;;;;5048330;28;20025;-75
2021/04/13 11:10:39;;;;;;;9.82;1.70;;;8.90;60.50;;;;;;4990774;28;20519;-73
2021/04/13 11:13:10;;;;;;;13.45;2.28;;;8.90;61.40;;;;;;5047987;28;20033;-74
2021/04/13 11:15:52;;;;;;;12.63;2.35;;;8.90;63.50;;;;;;5032976;28;20033;-74
2021/04/13 11:19:06;;;;;;;10.35;1.33;;;9.10;61.30;;;;;;5049360;28;20021;-73
2021/04/13 11:22:09;;;;;;;9.15;1.50;;;9.50;56.70;;;;;;5004728;28;20029;-71
2021/04/13 11:24:42;;;;;;;10.95;1.52;;;9.70;55.30;;;;;;5051472;28;20032;-72
2021/04/13 11:27:49;;;;;;;8.63;1.90;;;10.20;53.50;;;;;;5035463;28;20037;-73
2021/04/13 11:30:42;;;;;;;8.63;1.67;;;9.90;50.50;;;;;;4993049;28;20072;-72
2021/04/13 11:33:55;;;;;;;11.23;1.90;;;9.60;52.20;;;;;;4991807;28;20034;-73
2021/04/13 11:36:53;;;;;;;6.07;1.23;;;9.50;52.00;;;;;;4983963;28;20064;-73
2021/04/13 11:39:45;;;;;;;5.40;1.40;;;9.40;53.60;;;;;;4987684;28;20470;-74
2021/04/13 11:42:30;;;;;;;;;;;10.00;54.20;;;;;;4991550;28;20110;-72
2021/04/13 11:45:16;;;;;;;8.50;1.38;;;10.70;52.60;;;;;;4986949;28;19965;-74
2021/04/13 11:48:03;;;;;;;8.25;1.77;;;11.40;53.60;;;;;;4970466;28;20022;-73
2021/04/13 11:50:33;;;;;;;6.40;1.40;;;11.70;50.60;;;;;;4979755;28;20456;-74
2021/04/13 11:53:11;;;;;;;6.50;1.27;;;11.70;47.10;;;;;;4979008;28;20027;-75
2021/04/13 11:55:54;;;;;;;7.60;1.38;;;11.80;44.90;;;;;;4980120;28;20077;-74
2021/04/13 11:58:28;;;;;;;9.10;1.45;;;11.80;46.80;;;;;;4981824;28;20042;-73
2021/04/13 12:01:10;;;;;;;12.48;2.30;;;11.40;47.60;;;;;;4986671;28;20038;-75
2021/04/13 12:03:38;;;;;;;9.00;1.58;;;10.80;51.30;;;;;;4989839;28;20036;-74
2021/04/13 12:06:13;;;;;;;12.98;1.98;;;10.40;53.90;;;;;;5032907;28;20036;-75
2021/04/13 12:08:42;;;;;;;9.65;1.50;;;10.20;56.00;;;;;;5029643;28;20044;-75
2021/04/13 12:11:32;;;;;;;7.95;1.45;;;10.00;55.60;;;;;;5052506;28;20028;-75
2021/04/13 12:14:22;;;;;;;9.68;1.65;;;10.00;57.80;;;;;;5050661;28;20028;-73
2021/04/13 12:16:56;;;;;;;7.97;1.50;;;10.40;55.00;;;;;;5048922;28;20024;-73
2021/04/13 12:19:22;;;;;;;7.28;1.73;;;10.60;54.30;;;;;;5053768;28;20048;-75
2021/04/13 12:21:55;;;;;;;9.30;1.83;;;10.90;52.80;;;;;;5032309;28;20029;-74
2021/04/13 12:24:45;;;;;;;7.13;1.38;;;10.80;53.00;;;;;;5035446;28;20053;-74
2021/04/13 12:27:26;;;;;;;5.72;1.50;;;10.60;54.40;;;;;;5052647;28;20021;-75
2021/04/13 12:29:54;;;;;;;4.88;1.02;;;10.20;55.30;;;;;;5030612;28;20028;-74
2021/04/13 12:32:19;;;;;;;7.95;1.60;;;10.30;54.50;;;;;;5053931;28;20025;-74
2021/04/13 12:34:52;;;;;;;5.82;1.38;;;10.50;54.20;;;;;;5033117;28;20136;-76
2021/04/13 12:37:46;;;;;;;6.30;1.20;;;10.50;54.60;;;;;;5052099;28;20110;-73
2021/04/13 12:40:21;;;;;;;8.73;1.42;;;10.60;54.00;;;;;;5048940;28;20021;-74
2021/04/13 12:42:55;;;;;;;8.27;1.50;;;11.00;53.80;;;;;;5032209;28;20017;-74
2021/04/13 12:45:21;;;;;;;9.55;1.33;;;11.30;49.90;;;;;;5050425;28;21244;-74
2021/04/13 12:48:01;;;;;;;5.68;1.02;;;11.30;50.80;;;;;;5051596;28;20025;-73
2021/04/13 12:50:37;;;;;;;7.45;1.13;;;11.70;50.20;;;;;;5051786;28;20021;-73
2021/04/13 12:53:19;;;;;;;4.80;1.42;;;11.90;49.40;;;;;;5046538;28;20028;-73
2021/04/13 12:55:46;;;;;;;6.18;1.10;;;11.80;50.00;;;;;;5047221;28;20112;-74
2021/04/13 12:58:15;;;;;;;4.75;1.05;;;12.10;48.70;;;;;;5048978;28;20088;-74
2021/04/13 13:00:45;;;;;;;5.85;1.20;;;12.30;48.50;;;;;;5050284;28;20251;-74
2021/04/13 13:03:20;;;;;;;6.07;1.10;;;12.80;44.00;;;;;;5051575;28;20090;-74
2021/04/13 13:05:48;;;;;;;5.45;1.23;;;12.90;43.90;;;;;;5051098;28;20074;-74
2021/04/13 13:08:20;;;;;;;9.05;1.42;;;13.00;45.20;;;;;;5029652;28;20033;-74
2021/04/13 13:10:50;;;;;;;4.35;0.93;;;13.20;45.20;;;;;;5050637;28;20131;-74
2021/04/13 13:13:27;;;;;;;6.13;1.00;;;13.40;44.40;;;;;;5047234;28;20508;-74
2021/04/13 13:15:53;;;;;;;6.25;1.10;;;13.60;41.10;;;;;;5047530;28;20111;-73
2021/04/13 13:18:31;;;;;;;8.50;1.20;;;13.70;41.00;;;;;;5020590;28;20026;-74
2021/04/13 13:20:59;;;;;;;3.08;0.98;;;13.50;40.60;;;;;;5048910;28;20029;-74
2021/04/13 13:23:29;;;;;;;4.53;1.08;;;12.90;41.10;;;;;;5047075;28;20307;-74
2021/04/13 13:25:55;;;;;;;6.63;1.67;;;12.30;45.20;;;;;;5031227;28;20033;-74
2021/04/13 13:28:23;;;;;;;8.57;1.35;;;11.90;47.70;;;;;;5047004;28;20021;-74
2021/04/13 13:30:51;;;;;;;4.50;1.05;;;11.70;49.20;;;;;;5028826;28;20471;-75
2021/04/13 13:33:18;;;;;;;7.43;1.98;;;11.50;48.00;;;;;;5048839;28;20052;-74
2021/04/13 13:35:45;;;;;;;4.65;0.93;;;11.40;49.50;;;;;;5049460;28;20398;-75
2021/04/13 13:38:15;;;;;;;6.70;1.13;;;11.20;49.80;;;;;;5049238;28;20021;-75
2021/04/13 13:40:43;;;;;;;10.38;1.80;;;11.10;50.60;;;;;;5048889;28;20025;-74
2021/04/13 13:43:17;;;;;;;6.28;1.40;;;10.90;50.60;;;;;;5030729;28;20021;-73